createdAt,value
2018-05-10T00:00:06.050Z,978.55
2018-05-10T00:01:06.248Z,978.59
2018-05-10T00:02:06.496Z,978.60
2018-05-10T00:03:06.682Z,978.63
2018-05-10T00:04:06.906Z,978.57
2018-05-10T00:05:07.119Z,978.58
2018-05-10T00:06:09.278Z,978.55
2018-05-10T00:07:07.488Z,978.54
2018-05-10T00:08:11.283Z,978.49
2018-05-10T00:09:07.873Z,978.49
2018-05-10T00:10:08.084Z,978.45
2018-05-10T00:11:08.298Z,978.46
2018-05-10T00:12:08.518Z,978.46
2018-05-10T00:13:08.724Z,978.45
2018-05-10T00:14:08.950Z,978.45
2018-05-10T00:15:10.783Z,978.48
2018-05-10T00:16:09.379Z,978.46
2018-05-10T00:17:09.607Z,978.46
2018-05-10T00:18:09.822Z,978.44
2018-05-10T00:19:11.785Z,978.43
2018-05-10T00:20:10.250Z,978.39
2018-05-10T00:21:10.463Z,978.38
2018-05-10T00:22:10.684Z,978.35
2018-05-10T00:23:10.923Z,978.40
2018-05-10T00:24:11.095Z,978.39
2018-05-10T00:25:11.323Z,978.37
2018-05-10T00:26:11.574Z,978.40
2018-05-10T00:27:11.761Z,978.35
2018-05-10T00:28:11.982Z,978.36
2018-05-10T00:29:12.091Z,978.33
2018-05-10T00:30:12.298Z,978.31
2018-05-10T00:31:12.519Z,978.34
2018-05-10T00:32:12.727Z,978.33
2018-05-10T00:33:12.945Z,978.34
2018-05-10T00:34:13.195Z,978.34
2018-05-10T00:35:15.276Z,978.29
2018-05-10T00:36:13.579Z,978.27
2018-05-10T00:37:15.295Z,978.29
2018-05-10T00:38:13.874Z,978.28
2018-05-10T00:39:14.084Z,978.28
2018-05-10T00:40:17.284Z,978.26
2018-05-10T00:41:16.292Z,978.27
2018-05-10T00:42:14.633Z,978.26
2018-05-10T00:43:14.849Z,978.26
2018-05-10T00:44:16.795Z,978.24
2018-05-10T00:45:15.269Z,978.21
2018-05-10T00:46:15.491Z,978.23
2018-05-10T00:47:15.748Z,978.24
2018-05-10T00:48:15.933Z,978.27
2018-05-10T00:49:16.153Z,978.27
2018-05-10T00:50:16.375Z,978.27
2018-05-10T00:51:16.592Z,978.26
2018-05-10T00:52:16.821Z,978.24
2018-05-10T00:53:17.038Z,978.26
2018-05-10T00:54:17.252Z,978.21
2018-05-10T00:55:17.474Z,978.22
2018-05-10T00:56:17.679Z,978.23
2018-05-10T00:57:17.894Z,978.21
2018-05-10T00:58:18.155Z,978.19
2018-05-10T00:59:18.347Z,978.22
2018-05-10T01:00:18.548Z,978.16
2018-05-10T01:01:18.772Z,978.15
2018-05-10T01:02:18.989Z,978.17
2018-05-10T01:03:19.215Z,978.17
2018-05-10T01:04:19.439Z,978.17
2018-05-10T01:05:19.660Z,978.16
2018-05-10T01:06:19.880Z,978.20
2018-05-10T01:07:20.095Z,978.22
2018-05-10T01:08:20.327Z,978.23
2018-05-10T01:09:20.583Z,978.19
2018-05-10T01:10:20.752Z,978.23
2018-05-10T01:11:20.978Z,978.25
2018-05-10T01:12:21.198Z,978.28
2018-05-10T01:13:23.284Z,978.28
2018-05-10T01:14:21.650Z,978.27
2018-05-10T01:15:23.782Z,978.29
2018-05-10T01:16:22.012Z,978.29
2018-05-10T01:17:22.223Z,978.31
2018-05-10T01:18:22.480Z,978.34
2018-05-10T01:19:24.284Z,978.37
2018-05-10T01:20:22.755Z,978.35
2018-05-10T01:21:22.964Z,978.39
2018-05-10T01:22:23.191Z,978.37
2018-05-10T01:23:23.404Z,978.35
2018-05-10T01:24:27.284Z,978.37
2018-05-10T01:25:23.747Z,978.34
2018-05-10T01:26:23.977Z,978.31
2018-05-10T01:27:24.181Z,978.35
2018-05-10T01:28:24.403Z,978.33
2018-05-10T01:29:26.294Z,978.30
2018-05-10T01:30:24.764Z,978.32
2018-05-10T01:31:24.979Z,978.26
2018-05-10T01:32:25.237Z,978.22
2018-05-10T01:33:25.412Z,978.22
2018-05-10T01:34:25.536Z,978.19
2018-05-10T01:35:25.735Z,978.19
2018-05-10T01:36:27.779Z,978.21
2018-05-10T01:37:26.109Z,978.13
2018-05-10T01:38:26.336Z,978.18
2018-05-10T01:39:26.557Z,978.15
2018-05-10T01:40:26.764Z,978.15
2018-05-10T01:41:26.982Z,978.15
2018-05-10T01:42:27.212Z,978.22
2018-05-10T01:43:27.420Z,978.18
2018-05-10T01:44:27.635Z,978.19
2018-05-10T01:45:27.847Z,978.16
2018-05-10T01:46:28.053Z,978.23
2018-05-10T01:47:29.784Z,978.23
2018-05-10T01:48:28.497Z,978.22
2018-05-10T01:49:28.715Z,978.26
2018-05-10T01:50:28.942Z,978.26
2018-05-10T01:51:29.146Z,978.28
2018-05-10T01:52:29.359Z,978.30
2018-05-10T01:53:31.283Z,978.32
2018-05-10T01:54:29.746Z,978.29
2018-05-10T01:55:29.963Z,978.30
2018-05-10T01:56:30.172Z,978.30
2018-05-10T01:57:32.285Z,978.35
2018-05-10T01:58:30.502Z,978.28
2018-05-10T01:59:30.710Z,978.26
2018-05-10T02:00:32.789Z,978.33
2018-05-10T02:01:31.113Z,978.26
2018-05-10T02:02:31.328Z,978.27
2018-05-10T02:03:31.550Z,978.28
2018-05-10T02:04:31.765Z,978.29
2018-05-10T02:05:31.976Z,978.29
2018-05-10T02:06:32.214Z,978.27
2018-05-10T02:07:32.423Z,978.25
2018-05-10T02:08:32.633Z,978.23
2018-05-10T02:09:32.863Z,978.26
2018-05-10T02:10:33.069Z,978.23
2018-05-10T02:11:33.288Z,978.28
2018-05-10T02:12:33.510Z,978.26
2018-05-10T02:13:33.725Z,978.24
2018-05-10T02:14:33.948Z,978.23
2018-05-10T02:15:34.173Z,978.24
2018-05-10T02:16:34.384Z,978.30
2018-05-10T02:17:34.595Z,978.28
2018-05-10T02:18:36.781Z,978.23
2018-05-10T02:19:34.990Z,978.20
2018-05-10T02:20:35.228Z,978.21
2018-05-10T02:21:35.436Z,978.18
2018-05-10T02:22:35.646Z,978.20
2018-05-10T02:23:35.871Z,978.22
2018-05-10T02:24:36.084Z,978.22
2018-05-10T02:25:36.312Z,978.22
2018-05-10T02:26:38.288Z,978.24
2018-05-10T02:27:36.764Z,978.29
2018-05-10T02:28:36.989Z,978.29
2018-05-10T02:29:37.225Z,978.30
2018-05-10T02:30:37.416Z,978.33
2018-05-10T02:31:37.633Z,978.27
2018-05-10T02:32:37.847Z,978.30
2018-05-10T02:33:39.794Z,978.28
2018-05-10T02:34:38.254Z,978.24
2018-05-10T02:35:38.464Z,978.27
2018-05-10T02:36:40.332Z,978.27
2018-05-10T02:37:38.896Z,978.32
2018-05-10T02:38:39.104Z,978.32
2018-05-10T02:39:39.319Z,978.33
2018-05-10T02:40:39.529Z,978.38
2018-05-10T02:41:39.746Z,978.30
2018-05-10T02:42:39.969Z,978.37
2018-05-10T02:43:40.175Z,978.39
2018-05-10T02:44:42.282Z,978.36
2018-05-10T02:45:40.653Z,978.33
2018-05-10T02:46:40.847Z,978.37
2018-05-10T02:47:41.051Z,978.43
2018-05-10T02:48:41.263Z,978.46
2018-05-10T02:49:41.481Z,978.52
2018-05-10T02:50:41.702Z,978.49
2018-05-10T02:51:43.791Z,978.45
2018-05-10T02:52:42.142Z,978.51
2018-05-10T02:53:42.345Z,978.50
2018-05-10T02:54:42.555Z,978.46
2018-05-10T02:55:42.801Z,978.45
2018-05-10T02:56:43.007Z,978.48
2018-05-10T02:57:43.223Z,978.46
2018-05-10T02:58:43.430Z,978.44
2018-05-10T02:59:43.650Z,978.38
2018-05-10T03:00:43.869Z,978.36
2018-05-10T03:01:47.783Z,978.33
2018-05-10T03:02:44.240Z,978.34
2018-05-10T03:03:44.468Z,978.31
2018-05-10T03:04:44.676Z,978.34
2018-05-10T03:05:44.889Z,978.32
2018-05-10T03:06:45.106Z,978.32
2018-05-10T03:07:45.387Z,978.38
2018-05-10T03:08:45.565Z,978.34
2018-05-10T03:09:47.290Z,978.32
2018-05-10T03:10:45.998Z,978.33
2018-05-10T03:11:46.218Z,978.36
2018-05-10T03:12:46.440Z,978.35
2018-05-10T03:13:46.655Z,978.34
2018-05-10T03:14:48.788Z,978.37
2018-05-10T03:15:48.787Z,978.37
2018-05-10T03:16:47.132Z,978.40
2018-05-10T03:17:47.351Z,978.41
2018-05-10T03:18:47.566Z,978.46
2018-05-10T03:19:47.804Z,978.44
2018-05-10T03:20:48.034Z,978.44
2018-05-10T03:21:48.222Z,978.34
2018-05-10T03:22:48.445Z,978.38
2018-05-10T03:23:48.667Z,978.32
2018-05-10T03:24:48.901Z,978.33
2018-05-10T03:25:49.144Z,978.34
2018-05-10T03:26:49.318Z,978.34
2018-05-10T03:27:49.530Z,978.35
2018-05-10T03:28:49.751Z,978.32
2018-05-10T03:29:49.973Z,978.32
2018-05-10T03:30:50.176Z,978.32
2018-05-10T03:31:50.394Z,978.27
2018-05-10T03:32:50.603Z,978.33
2018-05-10T03:33:50.829Z,978.29
2018-05-10T03:34:51.048Z,978.32
2018-05-10T03:35:52.793Z,978.31
2018-05-10T03:36:51.415Z,978.34
2018-05-10T03:37:51.625Z,978.34
2018-05-10T03:38:51.844Z,978.36
2018-05-10T03:39:52.067Z,978.35
2018-05-10T03:40:52.286Z,978.39
2018-05-10T03:41:52.506Z,978.39
2018-05-10T03:42:52.711Z,978.35
2018-05-10T03:43:52.925Z,978.36
2018-05-10T03:44:53.158Z,978.41
2018-05-10T03:45:53.372Z,978.36
2018-05-10T03:46:53.592Z,978.40
2018-05-10T03:47:55.291Z,978.39
2018-05-10T03:48:54.011Z,978.36
2018-05-10T03:49:54.230Z,978.37
2018-05-10T03:50:54.444Z,978.39
2018-05-10T03:51:54.648Z,978.36
2018-05-10T03:52:54.869Z,978.41
2018-05-10T03:53:55.092Z,978.38
2018-05-10T03:54:55.298Z,978.39
2018-05-10T03:55:57.312Z,978.40
2018-05-10T03:56:57.290Z,978.39
2018-05-10T03:57:57.802Z,978.39
2018-05-10T03:58:56.023Z,978.42
2018-05-10T03:59:56.234Z,978.40
2018-05-10T04:00:56.459Z,978.41
2018-05-10T04:01:58.291Z,978.46
2018-05-10T04:02:58.788Z,978.42
2018-05-10T04:03:57.002Z,978.42
2018-05-10T04:04:57.228Z,978.44
2018-05-10T04:05:57.496Z,978.45
2018-05-10T04:06:57.659Z,978.48
2018-05-10T04:07:57.876Z,978.50
2018-05-10T04:08:58.101Z,978.50
2018-05-10T04:09:58.331Z,978.47
2018-05-10T04:10:58.537Z,978.48
2018-05-10T04:11:58.756Z,978.48
2018-05-10T04:12:58.967Z,978.48
2018-05-10T04:13:59.182Z,978.50
2018-05-10T04:14:59.408Z,978.47
2018-05-10T04:16:03.286Z,978.49
2018-05-10T04:16:59.746Z,978.50
2018-05-10T04:17:59.974Z,978.52
2018-05-10T04:19:00.185Z,978.53
2018-05-10T04:20:00.396Z,978.51
2018-05-10T04:21:02.306Z,978.52
2018-05-10T04:22:02.301Z,978.49
2018-05-10T04:23:00.900Z,978.53
2018-05-10T04:24:01.122Z,978.54
2018-05-10T04:25:01.331Z,978.52
2018-05-10T04:26:01.547Z,978.51
2018-05-10T04:27:01.775Z,978.56
2018-05-10T04:28:02.000Z,978.56
2018-05-10T04:29:02.209Z,978.56
2018-05-10T04:30:02.429Z,978.57
2018-05-10T04:31:02.637Z,978.58
2018-05-10T04:32:02.862Z,978.61
2018-05-10T04:33:03.074Z,978.59
2018-05-10T04:34:03.295Z,978.60
2018-05-10T04:35:03.498Z,978.54
2018-05-10T04:36:03.717Z,978.55
2018-05-10T04:37:03.938Z,978.56
2018-05-10T04:38:04.162Z,978.56
2018-05-10T04:39:04.364Z,978.56
2018-05-10T04:40:04.586Z,978.59
2018-05-10T04:41:06.297Z,978.61
2018-05-10T04:42:05.014Z,978.62
2018-05-10T04:43:05.240Z,978.61
2018-05-10T04:44:05.454Z,978.66
2018-05-10T04:45:05.668Z,978.64
2018-05-10T04:46:05.889Z,978.64
2018-05-10T04:47:06.105Z,978.59
2018-05-10T04:48:06.310Z,978.63
2018-05-10T04:49:06.525Z,978.66
2018-05-10T04:50:06.733Z,978.63
2018-05-10T04:51:06.956Z,978.64
2018-05-10T04:52:07.167Z,978.58
2018-05-10T04:53:07.383Z,978.61
2018-05-10T04:54:09.291Z,978.63
2018-05-10T04:55:07.751Z,978.64
2018-05-10T04:56:07.970Z,978.65
2018-05-10T04:57:13.796Z,978.69
2018-05-10T04:58:08.391Z,978.69
2018-05-10T04:59:08.598Z,978.73
2018-05-10T05:00:08.811Z,978.74
2018-05-10T05:01:10.796Z,978.72
2018-05-10T05:02:09.260Z,978.76
2018-05-10T05:03:09.480Z,978.74
2018-05-10T05:04:11.300Z,978.80
2018-05-10T05:05:09.891Z,978.75
2018-05-10T05:06:11.802Z,978.77
2018-05-10T05:07:10.302Z,978.75
2018-05-10T05:08:10.492Z,978.76
2018-05-10T05:09:10.707Z,978.75
2018-05-10T05:10:10.941Z,978.69
2018-05-10T05:11:11.049Z,978.75
2018-05-10T05:12:12.793Z,978.71
2018-05-10T05:13:11.388Z,978.76
2018-05-10T05:14:11.599Z,978.79
2018-05-10T05:15:11.846Z,978.85
2018-05-10T05:16:12.048Z,978.80
2018-05-10T05:17:12.884Z,978.88
2018-05-10T05:18:12.471Z,978.89
2018-05-10T05:19:12.694Z,978.88
2018-05-10T05:20:12.900Z,978.93
2018-05-10T05:21:13.127Z,978.91
2018-05-10T05:22:13.337Z,978.86
2018-05-10T05:23:15.315Z,978.91
2018-05-10T05:24:13.762Z,978.87
2018-05-10T05:25:13.982Z,978.87
2018-05-10T05:26:14.205Z,978.90
2018-05-10T05:27:14.408Z,978.89
2018-05-10T05:28:14.625Z,978.89
2018-05-10T05:29:14.843Z,978.84
2018-05-10T05:30:15.064Z,978.90
2018-05-10T05:31:15.321Z,978.90
2018-05-10T05:32:15.509Z,978.85
2018-05-10T05:33:15.731Z,978.85
2018-05-10T05:34:15.948Z,978.87
2018-05-10T05:35:16.167Z,978.83
2018-05-10T05:36:16.375Z,978.87
2018-05-10T05:37:16.623Z,978.84
2018-05-10T05:38:18.797Z,978.84
2018-05-10T05:39:17.016Z,978.89
2018-05-10T05:40:20.799Z,978.92
2018-05-10T05:41:17.396Z,978.93
2018-05-10T05:42:17.587Z,978.93
2018-05-10T05:43:17.840Z,978.99
2018-05-10T05:44:18.048Z,978.97
2018-05-10T05:45:18.232Z,978.94
2018-05-10T05:46:18.481Z,978.96
2018-05-10T05:47:18.678Z,978.94
2018-05-10T05:48:18.891Z,978.92
2018-05-10T05:49:19.094Z,978.96
2018-05-10T05:50:19.324Z,978.93
2018-05-10T05:51:19.552Z,978.95
2018-05-10T05:52:19.755Z,978.96
2018-05-10T05:53:19.981Z,978.98
2018-05-10T05:54:20.201Z,978.96
2018-05-10T05:55:20.394Z,979.03
2018-05-10T05:56:20.615Z,979.05
2018-05-10T05:57:22.793Z,979.00
2018-05-10T05:58:21.015Z,979.02
2018-05-10T05:59:21.220Z,979.05
2018-05-10T06:00:21.470Z,979.04
2018-05-10T06:01:21.658Z,979.04
2018-05-10T06:02:21.875Z,979.09
2018-05-10T06:03:22.081Z,979.13
2018-05-10T06:04:22.322Z,979.09
2018-05-10T06:05:22.537Z,979.16
2018-05-10T06:06:22.742Z,979.21
2018-05-10T06:07:22.965Z,979.22
2018-05-10T06:08:23.182Z,979.20
2018-05-10T06:09:23.395Z,979.24
2018-05-10T06:10:23.616Z,979.22
2018-05-10T06:11:25.797Z,979.24
2018-05-10T06:12:24.017Z,979.19
2018-05-10T06:13:24.234Z,979.22
2018-05-10T06:14:24.452Z,979.21
2018-05-10T06:15:24.764Z,979.24
2018-05-10T06:16:24.883Z,979.25
2018-05-10T06:17:25.107Z,979.26
2018-05-10T06:18:25.329Z,979.31
2018-05-10T06:19:25.538Z,979.30
2018-05-10T06:20:25.771Z,979.28
2018-05-10T06:21:26.004Z,979.24
2018-05-10T06:22:26.206Z,979.28
2018-05-10T06:23:28.301Z,979.24
2018-05-10T06:24:28.337Z,979.26
2018-05-10T06:25:26.767Z,979.26
2018-05-10T06:26:26.989Z,979.27
2018-05-10T06:27:27.197Z,979.31
2018-05-10T06:28:27.409Z,979.24
2018-05-10T06:29:27.636Z,979.27
2018-05-10T06:30:29.808Z,979.28
2018-05-10T06:31:29.800Z,979.28
2018-05-10T06:32:28.141Z,979.29
2018-05-10T06:33:28.355Z,979.29
2018-05-10T06:34:30.301Z,979.33
2018-05-10T06:35:28.768Z,979.33
2018-05-10T06:36:32.797Z,979.39
2018-05-10T06:37:29.146Z,979.38
2018-05-10T06:38:29.353Z,979.44
2018-05-10T06:39:31.297Z,979.45
2018-05-10T06:40:29.768Z,979.53
2018-05-10T06:41:30.022Z,979.51
2018-05-10T06:42:30.208Z,979.53
2018-05-10T06:43:30.432Z,979.58
2018-05-10T06:44:30.672Z,979.66
2018-05-10T06:45:30.865Z,979.70
2018-05-10T06:46:31.073Z,979.69
2018-05-10T06:47:31.291Z,979.75
2018-05-10T06:48:31.523Z,979.74
2018-05-10T06:49:31.727Z,979.86
2018-05-10T06:50:31.953Z,979.82
2018-05-10T06:51:32.179Z,979.84
2018-05-10T06:52:32.418Z,979.78
2018-05-10T06:53:34.316Z,979.76
2018-05-10T06:54:32.799Z,979.74
2018-05-10T06:55:33.011Z,979.69
2018-05-10T06:56:33.257Z,979.71
2018-05-10T06:57:33.459Z,979.73
2018-05-10T06:58:33.672Z,979.67
2018-05-10T06:59:33.890Z,979.67
2018-05-10T07:00:34.103Z,979.68
2018-05-10T07:01:38.300Z,979.69
2018-05-10T07:02:34.534Z,979.72
2018-05-10T07:03:34.782Z,979.76
2018-05-10T07:04:34.858Z,979.71
2018-05-10T07:05:35.091Z,979.71
2018-05-10T07:06:35.327Z,979.72
2018-05-10T07:07:35.545Z,979.71
2018-05-10T07:08:35.757Z,979.80
2018-05-10T07:09:36.114Z,979.76
2018-05-10T07:10:36.107Z,979.80
2018-05-10T07:11:36.322Z,979.79
2018-05-10T07:12:38.304Z,979.84
2018-05-10T07:13:36.803Z,979.85
2018-05-10T07:14:38.801Z,979.86
2018-05-10T07:15:37.159Z,979.87
2018-05-10T07:16:39.304Z,979.99
2018-05-10T07:17:39.306Z,979.96
2018-05-10T07:18:41.312Z,980.01
2018-05-10T07:19:39.304Z,979.99
2018-05-10T07:20:38.018Z,980.07
2018-05-10T07:21:39.817Z,980.10
2018-05-10T07:22:38.410Z,980.17
2018-05-10T07:23:39.649Z,979.96
2018-05-10T07:24:38.892Z,980.07
2018-05-10T07:25:42.853Z,980.08
2018-05-10T07:26:39.180Z,980.05
2018-05-10T07:27:41.299Z,980.09
2018-05-10T07:28:41.303Z,980.13
2018-05-10T07:29:39.683Z,980.17
2018-05-10T07:30:41.815Z,980.12
2018-05-10T07:31:41.801Z,980.13
2018-05-10T07:32:41.801Z,980.19
2018-05-10T07:33:41.461Z,980.19
2018-05-10T07:34:42.344Z,980.18
2018-05-10T07:35:42.318Z,980.18
2018-05-10T07:36:43.841Z,980.19
2018-05-10T07:37:42.807Z,980.19
2018-05-10T07:38:42.879Z,980.26
2018-05-10T07:39:46.238Z,980.26
2018-05-10T07:40:42.260Z,980.31
2018-05-10T07:41:49.816Z,980.34
2018-05-10T07:42:43.832Z,980.37
2018-05-10T07:43:42.232Z,980.41
2018-05-10T07:44:45.333Z,980.40
2018-05-10T07:45:44.309Z,980.37
2018-05-10T07:46:44.319Z,980.41
2018-05-10T07:47:50.343Z,980.37
2018-05-10T07:48:43.058Z,980.35
2018-05-10T07:49:59.768Z,980.34
2018-05-10T07:50:43.486Z,980.31
2018-05-10T07:51:45.308Z,980.31
2018-05-10T07:52:43.897Z,980.38
2018-05-10T07:53:45.802Z,980.39
2018-05-10T07:54:45.810Z,980.50
2018-05-10T07:55:46.366Z,980.51
2018-05-10T07:56:51.357Z,980.53
2018-05-10T07:57:44.701Z,980.53
2018-05-10T07:58:45.757Z,980.53
2018-05-10T07:59:46.847Z,980.45
2018-05-10T08:00:47.301Z,980.44
2018-05-10T08:01:46.297Z,980.45
2018-05-10T08:02:47.308Z,980.42
2018-05-10T08:03:49.841Z,980.43
2018-05-10T08:04:47.219Z,980.43
2018-05-10T08:05:48.321Z,980.45
2018-05-10T08:06:48.365Z,980.50
2018-05-10T08:07:48.301Z,980.48
2018-05-10T08:08:52.260Z,980.58
2018-05-10T08:09:47.304Z,980.54
2018-05-10T08:10:49.315Z,980.55
2018-05-10T08:11:47.550Z,980.54
2018-05-10T08:12:50.336Z,980.56
2018-05-10T08:13:50.404Z,980.59
2018-05-10T08:14:51.804Z,980.57
2018-05-10T08:15:49.852Z,980.59
2018-05-10T08:16:51.369Z,980.63
2018-05-10T08:17:49.652Z,980.61
2018-05-10T08:18:48.784Z,980.60
2018-05-10T08:19:51.769Z,980.63
2018-05-10T08:21:12.766Z,980.61
2018-05-10T08:21:56.324Z,980.62
2018-05-10T08:22:51.311Z,980.67
2018-05-10T08:23:51.811Z,980.65
2018-05-10T08:24:52.119Z,980.71
2018-05-10T08:25:52.322Z,980.72
2018-05-10T08:26:51.108Z,980.78
2018-05-10T08:27:52.787Z,980.80
2018-05-10T08:28:57.838Z,980.62
2018-05-10T08:29:53.177Z,980.60
2018-05-10T08:30:54.275Z,980.58
2018-05-10T08:31:54.010Z,980.60
2018-05-10T08:32:56.848Z,980.43
2018-05-10T08:34:24.539Z,980.56
2018-05-10T08:34:56.304Z,980.61
2018-05-10T08:35:54.319Z,980.70
2018-05-10T08:36:54.767Z,980.32
2018-05-10T08:37:56.201Z,980.31
2018-05-10T08:38:54.058Z,980.44
2018-05-10T08:39:55.307Z,980.53
2018-05-10T08:40:55.344Z,980.54
2018-05-10T08:41:53.873Z,980.75
2018-05-10T08:42:55.914Z,980.46
2018-05-10T08:43:54.604Z,980.42
2018-05-10T08:44:57.324Z,980.51
2018-05-10T08:45:56.361Z,980.40
2018-05-10T08:46:54.763Z,980.37
2018-05-10T08:47:58.800Z,980.37
2018-05-10T08:49:02.842Z,980.37
2018-05-10T08:50:00.347Z,980.33
2018-05-10T08:51:12.370Z,980.35
2018-05-10T08:51:57.470Z,980.37
2018-05-10T08:52:57.353Z,980.51
2018-05-10T08:53:58.668Z,980.67
2018-05-10T08:54:56.779Z,980.94
2018-05-10T08:55:59.962Z,980.99
2018-05-10T08:56:56.471Z,980.98
2018-05-10T08:57:58.836Z,980.97
2018-05-10T08:58:58.964Z,980.94
2018-05-10T08:59:59.712Z,980.99
2018-05-10T09:00:59.823Z,980.98
2018-05-10T09:01:58.724Z,980.96
2018-05-10T09:02:59.759Z,980.97
2018-05-10T09:03:58.502Z,981.01
2018-05-10T09:06:33.889Z,981.06
2018-05-10T09:07:34.651Z,981.03
2018-05-10T09:08:35.730Z,981.09
2018-05-10T09:09:35.231Z,981.12
2018-05-10T09:10:36.835Z,981.14
2018-05-10T09:11:33.139Z,981.06
2018-05-10T09:12:32.178Z,980.93
2018-05-10T09:13:40.230Z,980.90
2018-05-10T09:14:32.498Z,980.95
2018-05-10T09:15:32.988Z,980.96
2018-05-10T09:16:37.220Z,980.91
2018-05-10T09:17:36.718Z,980.96
2018-05-10T09:18:36.127Z,980.95
2018-05-10T09:19:55.831Z,980.98
2018-05-10T09:20:34.056Z,980.98
2018-05-10T09:21:33.568Z,980.95
2018-05-10T09:22:41.098Z,981.02
2018-05-10T09:23:35.865Z,980.99
2018-05-10T09:24:34.158Z,981.13
2018-05-10T09:25:56.042Z,981.22
2018-05-10T09:28:25.346Z,981.31
2018-05-10T09:29:08.272Z,981.30
2018-05-10T09:32:00.012Z,981.25
2018-05-10T09:33:03.463Z,981.24
2018-05-10T09:36:58.516Z,981.22
2018-05-10T09:37:52.803Z,981.17
2018-05-10T09:38:55.474Z,981.17
2018-05-10T09:43:10.914Z,981.14
2018-05-10T09:44:12.737Z,981.19
2018-05-10T09:45:07.494Z,981.17
2018-05-10T09:46:10.434Z,981.19
2018-05-10T09:47:32.941Z,981.17
2018-05-10T09:49:42.344Z,981.23
2018-05-10T09:52:18.026Z,980.73
2018-05-10T09:53:16.689Z,981.24
2018-05-10T09:54:34.708Z,981.29
2018-05-10T09:55:36.193Z,981.28
2018-05-10T09:56:13.023Z,981.10
2018-05-10T09:57:41.089Z,981.36
2018-05-10T09:59:57.699Z,981.42
2018-05-10T10:00:50.507Z,981.44
2018-05-10T10:01:53.561Z,981.39
2018-05-10T10:03:00.580Z,981.30
2018-05-10T10:05:38.623Z,981.46
2018-05-10T10:06:18.199Z,980.54
2018-05-10T10:07:34.654Z,980.53
2018-05-10T10:09:53.003Z,981.54
2018-05-10T10:10:51.973Z,981.46
2018-05-10T10:11:51.629Z,980.72
2018-05-10T10:12:57.528Z,981.09
2018-05-10T10:13:52.008Z,981.52
2018-05-10T10:15:02.011Z,981.49
2018-05-10T10:15:53.399Z,981.48
2018-05-10T10:16:52.720Z,981.53
2018-05-10T10:17:51.978Z,981.50
2018-05-10T10:18:52.011Z,981.44
2018-05-10T10:20:03.006Z,981.50
2018-05-10T10:22:26.122Z,981.49
2018-05-10T10:23:26.317Z,980.49
2018-05-10T10:24:31.706Z,980.64
2018-05-10T10:26:59.608Z,981.55
2018-05-10T10:28:18.643Z,981.56
2018-05-10T10:30:42.921Z,981.28
2018-05-10T10:31:40.621Z,980.59
2018-05-10T10:32:58.916Z,981.48
2018-05-10T10:33:36.461Z,980.53
2018-05-10T10:34:30.471Z,980.45
2018-05-10T10:35:55.902Z,981.46
2018-05-10T10:36:32.887Z,980.93
2018-05-10T10:37:32.150Z,980.48
2018-05-10T10:38:30.723Z,980.45
2018-05-10T10:39:30.734Z,980.68
2018-05-10T10:40:32.381Z,981.56
2018-05-10T10:41:30.380Z,981.50
2018-05-10T10:42:55.431Z,980.62
2018-05-10T10:43:31.906Z,980.64
2018-05-10T10:44:34.146Z,981.35
2018-05-10T10:45:46.941Z,981.49
2018-05-10T10:46:36.401Z,980.55
2018-05-10T10:47:33.431Z,980.59
2018-05-10T10:48:39.487Z,981.11
2018-05-10T10:49:33.444Z,981.59
2018-05-10T10:50:34.918Z,980.53
2018-05-10T10:51:36.933Z,980.51
2018-05-10T10:52:36.394Z,980.54
2018-05-10T10:53:34.884Z,981.58
2018-05-10T10:54:34.938Z,981.65
2018-05-10T10:55:45.900Z,981.61
2018-05-10T10:56:35.378Z,981.64
2018-05-10T10:57:35.885Z,980.89
2018-05-10T10:58:39.974Z,980.72
2018-05-10T10:59:39.930Z,981.25
2018-05-10T11:00:41.941Z,981.33
2018-05-10T11:01:34.458Z,981.30
2018-05-10T11:02:36.437Z,981.29
2018-05-10T11:03:50.489Z,981.27
2018-05-10T11:04:52.384Z,981.31
2018-05-10T11:05:38.409Z,981.36
2018-05-10T11:06:40.906Z,981.39
2018-05-10T11:07:39.318Z,981.14
2018-05-10T11:09:13.532Z,981.11
2018-05-10T11:11:10.526Z,980.92
2018-05-10T11:12:09.813Z,981.20
2018-05-10T11:13:17.515Z,981.35
2018-05-10T11:14:09.875Z,981.19
2018-05-10T11:15:21.469Z,981.27
2018-05-10T11:16:13.507Z,981.30
2018-05-10T11:17:20.518Z,981.28
2018-05-10T11:18:10.536Z,981.25
2018-05-10T11:19:13.043Z,981.19
2018-05-10T11:20:13.979Z,981.13
2018-05-10T11:21:12.524Z,981.12
2018-05-10T11:22:11.480Z,981.05
2018-05-10T11:23:25.528Z,980.69
2018-05-10T11:24:34.041Z,980.71
2018-05-10T11:25:12.018Z,980.72
2018-05-10T11:26:12.109Z,981.14
2018-05-10T11:27:12.565Z,981.24
2018-05-10T11:28:11.490Z,981.21
2018-05-10T11:29:12.519Z,981.23
2018-05-10T11:30:18.486Z,981.12
2018-05-10T11:31:12.986Z,981.08
2018-05-10T11:32:19.991Z,981.03
2018-05-10T11:33:16.521Z,980.94
2018-05-10T11:34:15.524Z,980.80
2018-05-10T11:35:16.033Z,980.94
2018-05-10T11:36:12.322Z,980.76
2018-05-10T11:37:12.478Z,980.80
2018-05-10T11:38:13.698Z,980.80
2018-05-10T11:39:13.003Z,980.79
2018-05-10T11:40:19.021Z,980.81
2018-05-10T11:41:15.529Z,980.83
2018-05-10T11:42:16.973Z,980.84
2018-05-10T11:43:15.538Z,981.04
2018-05-10T11:44:17.526Z,981.06
2018-05-10T11:45:16.647Z,981.10
2018-05-10T11:46:16.024Z,981.10
2018-05-10T11:47:14.499Z,981.13
2018-05-10T11:48:16.565Z,981.26
2018-05-10T11:49:16.529Z,980.80
2018-05-10T11:50:19.035Z,980.78
2018-05-10T11:51:17.056Z,980.77
2018-05-10T11:52:17.028Z,980.73
2018-05-10T11:53:15.984Z,980.77
2018-05-10T11:54:16.719Z,980.73
2018-05-10T11:55:17.508Z,980.76
2018-05-10T11:56:17.116Z,980.82
2018-05-10T11:57:16.357Z,981.30
2018-05-10T11:58:18.671Z,981.13
2018-05-10T11:59:29.980Z,981.38
2018-05-10T12:00:20.549Z,981.41
2018-05-10T12:01:19.994Z,981.44
2018-05-10T12:02:18.371Z,981.44
2018-05-10T12:03:18.536Z,981.44
2018-05-10T12:04:18.980Z,981.17
2018-05-10T12:05:17.967Z,981.27
2018-05-10T12:06:20.055Z,981.10
2018-05-10T12:07:20.022Z,980.98
2018-05-10T12:08:22.485Z,981.00
2018-05-10T12:09:23.142Z,981.07
2018-05-10T12:10:19.977Z,981.08
2018-05-10T12:11:19.262Z,981.17
2018-05-10T12:12:19.476Z,981.42
2018-05-10T12:13:19.639Z,981.41
2018-05-10T12:14:19.816Z,981.32
2018-05-10T12:15:36.028Z,981.31
2018-05-10T12:16:49.222Z,981.13
2018-05-10T12:17:22.394Z,981.14
2018-05-10T12:18:20.609Z,981.31
2018-05-10T12:19:20.837Z,981.15
2018-05-10T12:20:21.037Z,981.17
2018-05-10T12:21:25.022Z,981.25
2018-05-10T12:22:21.362Z,981.25
2018-05-10T12:23:24.487Z,981.23
2018-05-10T12:24:22.512Z,981.29
2018-05-10T12:25:23.564Z,981.33
2018-05-10T12:26:24.028Z,981.36
2018-05-10T12:27:22.417Z,981.23
2018-05-10T12:28:25.493Z,981.20
2018-05-10T12:29:26.521Z,981.21
2018-05-10T12:30:24.619Z,981.24
2018-05-10T12:31:25.563Z,981.27
2018-05-10T12:32:25.097Z,981.39
2018-05-10T12:33:31.071Z,981.36
2018-05-10T12:34:23.672Z,981.28
2018-05-10T12:35:26.481Z,981.25
2018-05-10T12:36:29.023Z,981.35
2018-05-10T12:37:29.511Z,981.31
2018-05-10T12:38:24.988Z,981.39
2018-05-10T12:39:26.531Z,981.34
2018-05-10T12:40:26.523Z,981.32
2018-05-10T12:41:40.561Z,981.30
2018-05-10T12:42:41.037Z,981.29
2018-05-10T12:43:25.373Z,981.28
2018-05-10T12:44:27.555Z,981.29
2018-05-10T12:45:26.486Z,981.40
2018-05-10T12:46:26.127Z,981.33
2018-05-10T12:47:38.030Z,981.32
2018-05-10T12:48:28.041Z,981.26
2018-05-10T12:49:42.999Z,981.37
2018-05-10T12:50:43.520Z,981.35
2018-05-10T12:51:27.878Z,981.49
2018-05-10T12:52:30.680Z,981.49
2018-05-10T12:53:28.022Z,981.46
2018-05-10T12:54:27.431Z,981.43
2018-05-10T12:55:28.610Z,981.43